createdAt,value
2017-01-10T00:00:02.303Z,1012.68
2017-01-10T00:01:12.237Z,1012.68
2017-01-10T00:02:23.392Z,1012.66
2017-01-10T00:03:34.102Z,1012.65
2017-01-10T00:04:44.797Z,1012.66
2017-01-10T00:05:54.717Z,1012.65
2017-01-10T00:07:04.643Z,1012.65
2017-01-10T00:08:15.266Z,1012.63
2017-01-10T00:09:26.000Z,1012.61
2017-01-10T00:10:36.713Z,1012.65
2017-01-10T00:11:47.420Z,1012.61
2017-01-10T00:12:58.130Z,1012.59
2017-01-10T00:14:07.948Z,1012.58
2017-01-10T00:15:18.277Z,1012.64
2017-01-10T00:16:28.616Z,1012.57
2017-01-10T00:17:38.544Z,1012.59
2017-01-10T00:18:49.281Z,1012.55
2017-01-10T00:19:59.515Z,1012.5
2017-01-10T00:21:10.081Z,1012.52
2017-01-10T00:22:20.006Z,1012.55
2017-01-10T00:23:30.717Z,1012.51
2017-01-10T00:24:40.643Z,1012.49
2017-01-10T00:25:51.570Z,1012.46
2017-01-10T00:27:01.888Z,1012.45
2017-01-10T00:28:12.653Z,1012.38
2017-01-10T00:29:23.363Z,1012.39
2017-01-10T00:30:33.679Z,1012.35
2017-01-10T00:31:44.293Z,1012.37
2017-01-10T00:32:54.217Z,1012.3
2017-01-10T00:34:04.142Z,1012.27
2017-01-10T00:35:14.448Z,1012.27
2017-01-10T00:36:24.771Z,1012.25
2017-01-10T00:37:35.782Z,1012.23
2017-01-10T00:38:46.108Z,1012.21
2017-01-10T00:39:56.435Z,1012.2
2017-01-10T00:41:06.357Z,1012.15
2017-01-10T00:42:16.668Z,1012.14
2017-01-10T00:43:27.331Z,1012.12
2017-01-10T00:44:38.044Z,1012.07
2017-01-10T00:45:48.373Z,1012.04
2017-01-10T00:46:59.084Z,1011.98
2017-01-10T00:48:09.406Z,1012
2017-01-10T00:49:19.644Z,1011.95
2017-01-10T00:50:29.961Z,1011.93
2017-01-10T00:51:40.677Z,1011.91
2017-01-10T00:52:51.394Z,1011.93
2017-01-10T00:54:01.310Z,1011.89
2017-01-10T00:55:11.931Z,1011.89
2017-01-10T00:56:21.854Z,1011.86
2017-01-10T00:57:32.167Z,1011.86
2017-01-10T00:58:42.872Z,1011.82
2017-01-10T00:59:53.185Z,1011.79
2017-01-10T01:01:03.422Z,1011.74
2017-01-10T01:02:13.774Z,1011.7
2017-01-10T01:03:24.107Z,1011.7
2017-01-10T01:04:34.815Z,1011.7
2017-01-10T01:05:45.331Z,1011.67
2017-01-10T01:06:56.600Z,1011.66
2017-01-10T01:08:07.317Z,1011.62
2017-01-10T01:09:18.039Z,1011.65
2017-01-10T01:10:28.747Z,1011.61
2017-01-10T01:11:38.674Z,1011.59
2017-01-10T01:12:49.692Z,1011.58
2017-01-10T01:14:00.008Z,1011.54
2017-01-10T01:15:10.328Z,1011.51
2017-01-10T01:16:21.058Z,1011.52
2017-01-10T01:17:30.975Z,1011.53
2017-01-10T01:18:41.594Z,1011.53
2017-01-10T01:19:51.937Z,1011.55
2017-01-10T01:21:02.560Z,1011.5
2017-01-10T01:22:13.272Z,1011.51
2017-01-10T01:23:23.976Z,1011.51
2017-01-10T01:24:35.058Z,1011.5
2017-01-10T01:25:45.767Z,1011.46
2017-01-10T01:26:56.478Z,1011.41
2017-01-10T01:28:06.792Z,1011.41
2017-01-10T01:29:17.105Z,1011.47
2017-01-10T01:30:28.117Z,1011.44
2017-01-10T01:31:38.837Z,1011.43
2017-01-10T01:32:49.141Z,1011.45
2017-01-10T01:33:59.473Z,1011.46
2017-01-10T01:35:09.784Z,1011.48
2017-01-10T01:36:20.811Z,1011.46
2017-01-10T01:37:31.120Z,1011.45
2017-01-10T01:38:41.835Z,1011.45
2017-01-10T01:39:52.558Z,1011.39
2017-01-10T01:41:03.303Z,1011.39
2017-01-10T01:42:14.334Z,1011.38
2017-01-10T01:43:25.041Z,1011.39
2017-01-10T01:44:35.755Z,1011.36
2017-01-10T01:45:46.068Z,1011.35
2017-01-10T01:46:56.811Z,1011.31
2017-01-10T01:48:07.838Z,1011.35
2017-01-10T01:49:18.558Z,1011.37
2017-01-10T01:50:29.277Z,1011.35
2017-01-10T01:51:39.591Z,1011.36
2017-01-10T01:52:49.521Z,1011.35
2017-01-10T01:54:00.538Z,1011.31
2017-01-10T01:55:10.068Z,1011.34
2017-01-10T01:56:20.004Z,1011.32
2017-01-10T01:57:30.724Z,1011.28
2017-01-10T01:58:40.635Z,1011.23
2017-01-10T01:59:51.256Z,1011.22
2017-01-10T02:01:01.575Z,1011.16
2017-01-10T02:02:11.892Z,1011.15
2017-01-10T02:03:22.208Z,1011.12
2017-01-10T02:04:32.913Z,1011.09
2017-01-10T02:05:43.143Z,1011.07
2017-01-10T02:06:53.057Z,1011.08
2017-01-10T02:08:03.376Z,1011
2017-01-10T02:09:13.684Z,1010.97
2017-01-10T02:10:24.011Z,1010.96
2017-01-10T02:11:35.024Z,1010.95
2017-01-10T02:12:45.385Z,1010.96
2017-01-10T02:13:56.115Z,1010.93
2017-01-10T02:15:06.842Z,1010.9
2017-01-10T02:16:17.574Z,1010.87
2017-01-10T02:17:28.615Z,1010.85
2017-01-10T02:18:39.326Z,1010.85
2017-01-10T02:19:50.036Z,1010.84
2017-01-10T02:21:00.351Z,1010.82
2017-01-10T02:22:10.669Z,1010.84
2017-01-10T02:23:21.678Z,1010.82
2017-01-10T02:24:32.001Z,1010.83
2017-01-10T02:25:42.714Z,1010.79
2017-01-10T02:26:53.432Z,1010.82
2017-01-10T02:28:03.749Z,1010.82
2017-01-10T02:29:14.773Z,1010.84
2017-01-10T02:30:25.099Z,1010.83
2017-01-10T02:31:35.020Z,1010.85
2017-01-10T02:32:45.762Z,1010.85
2017-01-10T02:33:56.494Z,1010.82
2017-01-10T02:35:06.331Z,1010.82
2017-01-10T02:36:17.045Z,1010.83
2017-01-10T02:37:27.751Z,1010.9
2017-01-10T02:38:38.059Z,1010.87
2017-01-10T02:39:48.369Z,1010.86
2017-01-10T02:40:58.997Z,1010.84
2017-01-10T02:42:08.908Z,1010.84
2017-01-10T02:43:18.828Z,1010.8
2017-01-10T02:44:29.535Z,1010.8
2017-01-10T02:45:39.842Z,1010.78
2017-01-10T02:46:50.485Z,1010.78
2017-01-10T02:48:00.796Z,1010.78
2017-01-10T02:49:11.510Z,1010.8
2017-01-10T02:50:21.444Z,1010.76
2017-01-10T02:51:32.153Z,1010.76
2017-01-10T02:52:43.067Z,1010.78
2017-01-10T02:53:53.782Z,1010.71
2017-01-10T02:55:03.710Z,1010.73
2017-01-10T02:56:14.411Z,1010.71
2017-01-10T02:57:24.730Z,1010.72
2017-01-10T02:58:35.346Z,1010.7
2017-01-10T02:59:46.060Z,1010.74
2017-01-10T03:00:56.376Z,1010.69
2017-01-10T03:02:06.695Z,1010.67
2017-01-10T03:03:17.021Z,1010.64
2017-01-10T03:04:27.621Z,1010.56
2017-01-10T03:05:38.340Z,1010.61
2017-01-10T03:06:47.864Z,1010.56
2017-01-10T03:07:57.798Z,1010.57
2017-01-10T03:09:08.119Z,1010.54
2017-01-10T03:10:19.130Z,1010.52
2017-01-10T03:11:29.483Z,1010.49
2017-01-10T03:12:39.399Z,1010.47
2017-01-10T03:13:50.711Z,1010.49
2017-01-10T03:15:01.413Z,1010.47
2017-01-10T03:16:12.443Z,1010.47
2017-01-10T03:17:22.759Z,1010.38
2017-01-10T03:18:33.073Z,1010.31
2017-01-10T03:19:43.793Z,1010.31
2017-01-10T03:20:54.501Z,1010.26
2017-01-10T03:22:05.509Z,1010.27
2017-01-10T03:23:15.813Z,1010.23
2017-01-10T03:24:26.119Z,1010.22
2017-01-10T03:25:36.036Z,1010.21
2017-01-10T03:26:46.356Z,1010.21
2017-01-10T03:27:56.974Z,1010.2
2017-01-10T03:29:07.293Z,1010.2
2017-01-10T03:30:17.620Z,1010.16
2017-01-10T03:31:27.989Z,1010.2
2017-01-10T03:32:38.660Z,1010.14
2017-01-10T03:33:49.269Z,1010.15
2017-01-10T03:34:59.205Z,1010.16
2017-01-10T03:36:09.947Z,1010.17
2017-01-10T03:37:19.861Z,1010.15
2017-01-10T03:38:30.176Z,1010.14
2017-01-10T03:39:41.076Z,1010.17
2017-01-10T03:40:51.829Z,1010.14
2017-01-10T03:42:02.407Z,1010.18
2017-01-10T03:43:13.170Z,1010.1
2017-01-10T03:44:23.880Z,1010.1
2017-01-10T03:45:34.495Z,1010.07
2017-01-10T03:46:44.415Z,1010.08
2017-01-10T03:47:54.335Z,1010.08
2017-01-10T03:49:04.674Z,1010.07
2017-01-10T03:50:14.984Z,1010.04
2017-01-10T03:51:25.605Z,1010.02
2017-01-10T03:52:35.912Z,1010.01
2017-01-10T03:53:45.448Z,1009.97
2017-01-10T03:54:55.752Z,1009.98
2017-01-10T03:56:06.066Z,1009.91
2017-01-10T03:57:15.938Z,1009.9
2017-01-10T03:58:26.640Z,1009.89
2017-01-10T03:59:36.961Z,1009.9
2017-01-10T04:00:47.271Z,1009.87
2017-01-10T04:01:57.586Z,1009.84
2017-01-10T04:03:07.802Z,1009.8
2017-01-10T04:04:18.110Z,1009.77
2017-01-10T04:05:28.046Z,1009.73
2017-01-10T04:06:38.747Z,1009.72
2017-01-10T04:07:49.451Z,1009.7
2017-01-10T04:09:00.056Z,1009.67
2017-01-10T04:10:10.416Z,1009.61
2017-01-10T04:11:21.121Z,1009.64
2017-01-10T04:12:31.822Z,1009.61
2017-01-10T04:13:42.558Z,1009.61
2017-01-10T04:14:53.598Z,1009.58
2017-01-10T04:16:03.915Z,1009.57
2017-01-10T04:17:14.617Z,1009.58
2017-01-10T04:18:24.935Z,1009.58
2017-01-10T04:19:34.458Z,1009.5
2017-01-10T04:20:45.460Z,1009.5
2017-01-10T04:21:55.792Z,1009.46
2017-01-10T04:23:05.709Z,1009.43
2017-01-10T04:24:16.407Z,1009.41
2017-01-10T04:25:27.114Z,1009.33
2017-01-10T04:26:37.325Z,1009.39
2017-01-10T04:27:47.639Z,1009.39
2017-01-10T04:28:57.961Z,1009.41
2017-01-10T04:30:08.272Z,1009.36
2017-01-10T04:31:18.973Z,1009.31
2017-01-10T04:32:29.978Z,1009.33
2017-01-10T04:33:40.687Z,1009.33
2017-01-10T04:34:51.397Z,1009.32
2017-01-10T04:36:01.706Z,1009.31
2017-01-10T04:37:11.624Z,1009.28
2017-01-10T04:38:22.646Z,1009.28
2017-01-10T04:39:32.560Z,1009.22
2017-01-10T04:40:43.322Z,1009.22
2017-01-10T04:41:53.642Z,1009.22
2017-01-10T04:43:03.956Z,1009.26
2017-01-10T04:44:14.976Z,1009.24
2017-01-10T04:45:25.293Z,1009.26
2017-01-10T04:46:35.222Z,1009.22
2017-01-10T04:47:45.543Z,1009.24
2017-01-10T04:48:56.260Z,1009.26
2017-01-10T04:50:06.877Z,1009.25
2017-01-10T04:51:17.593Z,1009.26
2017-01-10T04:52:27.911Z,1009.24
2017-01-10T04:53:38.631Z,1009.31
2017-01-10T04:54:48.951Z,1009.32
2017-01-10T04:55:59.969Z,1009.34
2017-01-10T04:57:10.302Z,1009.32
2017-01-10T04:58:20.617Z,1009.33
2017-01-10T04:59:30.933Z,1009.34
2017-01-10T05:00:41.250Z,1009.37
2017-01-10T05:01:52.584Z,1009.32
2017-01-10T05:03:02.904Z,1009.34
2017-01-10T05:04:13.237Z,1009.31
2017-01-10T05:05:23.553Z,1009.34
2017-01-10T05:06:33.877Z,1009.37
2017-01-10T05:07:44.893Z,1009.38
2017-01-10T05:08:55.602Z,1009.35
2017-01-10T05:10:05.131Z,1009.32
2017-01-10T05:11:15.836Z,1009.36
2017-01-10T05:12:25.762Z,1009.33
2017-01-10T05:13:36.780Z,1009.33
2017-01-10T05:14:47.497Z,1009.3
2017-01-10T05:15:56.625Z,1009.3
2017-01-10T05:17:07.340Z,1009.33
2017-01-10T05:18:16.857Z,1009.33
2017-01-10T05:19:27.468Z,1009.3
2017-01-10T05:20:37.787Z,1009.29
2017-01-10T05:21:48.492Z,1009.26
2017-01-10T05:22:58.819Z,1009.34
2017-01-10T05:24:09.526Z,1009.32
2017-01-10T05:25:20.144Z,1009.34
2017-01-10T05:26:30.912Z,1009.29
2017-01-10T05:27:40.840Z,1009.31
2017-01-10T05:28:51.546Z,1009.3
2017-01-10T05:30:02.354Z,1009.31
2017-01-10T05:31:13.369Z,1009.26
2017-01-10T05:32:23.293Z,1009.22
2017-01-10T05:33:34.026Z,1009.29
2017-01-10T05:34:44.348Z,1009.29
2017-01-10T05:35:55.047Z,1009.25
2017-01-10T05:37:05.658Z,1009.3
2017-01-10T05:38:15.981Z,1009.26
2017-01-10T05:39:26.301Z,1009.3
2017-01-10T05:40:36.612Z,1009.3
2017-01-10T05:41:46.937Z,1009.27
2017-01-10T05:42:57.633Z,1009.24
2017-01-10T05:44:08.346Z,1009.22
2017-01-10T05:45:19.070Z,1009.25
2017-01-10T05:46:29.383Z,1009.21
2017-01-10T05:47:40.094Z,1009.2
2017-01-10T05:48:50.708Z,1009.15
2017-01-10T05:50:00.228Z,1009.15
2017-01-10T05:51:09.777Z,1009.15
2017-01-10T05:52:19.695Z,1009.18
2017-01-10T05:53:30.392Z,1009.16
2017-01-10T05:54:40.617Z,1009.19
2017-01-10T05:55:51.322Z,1009.16
2017-01-10T05:57:01.637Z,1009.16
2017-01-10T05:58:12.343Z,1009.2
2017-01-10T05:59:22.257Z,1009.2
2017-01-10T06:00:32.892Z,1009.18
2017-01-10T06:01:43.598Z,1009.19
2017-01-10T06:02:53.914Z,1009.2
2017-01-10T06:04:03.837Z,1009.21
2017-01-10T06:05:13.758Z,1009.22
2017-01-10T06:06:24.766Z,1009.23
2017-01-10T06:07:35.342Z,1009.21
2017-01-10T06:08:46.068Z,1009.21
2017-01-10T06:09:56.766Z,1009.19
2017-01-10T06:11:07.480Z,1009.16
2017-01-10T06:12:18.513Z,1009.19
2017-01-10T06:13:29.982Z,1009.19
2017-01-10T06:14:40.686Z,1009.18
2017-01-10T06:15:51.466Z,1009.21
2017-01-10T06:17:01.387Z,1009.24
2017-01-10T06:18:12.098Z,1009.25
2017-01-10T06:19:21.616Z,1009.22
2017-01-10T06:20:32.334Z,1009.2
2017-01-10T06:21:42.254Z,1009.2
2017-01-10T06:22:52.974Z,1009.17
2017-01-10T06:24:03.187Z,1009.17
2017-01-10T06:25:13.909Z,1009.19
2017-01-10T06:26:24.226Z,1009.24
2017-01-10T06:27:34.155Z,1009.23
2017-01-10T06:28:44.900Z,1009.23
2017-01-10T06:29:55.625Z,1009.22
2017-01-10T06:31:05.974Z,1009.3
2017-01-10T06:32:16.965Z,1009.33
2017-01-10T06:33:27.356Z,1009.36
2017-01-10T06:34:37.691Z,1009.41
2017-01-10T06:35:48.446Z,1009.34
2017-01-10T06:36:58.802Z,1009.35
2017-01-10T06:38:09.129Z,1009.35
2017-01-10T06:39:19.839Z,1009.33
2017-01-10T06:40:30.159Z,1009.34
2017-01-10T06:41:40.383Z,1009.36
2017-01-10T06:42:51.104Z,1009.33
2017-01-10T06:44:01.825Z,1009.38
2017-01-10T06:45:12.152Z,1009.41
2017-01-10T06:46:22.885Z,1009.48
2017-01-10T06:47:33.609Z,1009.54
2017-01-10T06:48:43.938Z,1009.57
2017-01-10T06:49:54.284Z,1009.53
2017-01-10T06:51:05.038Z,1009.5
2017-01-10T06:52:15.365Z,1009.5
2017-01-10T06:53:26.386Z,1009.53
2017-01-10T06:54:37.116Z,1009.54
2017-01-10T06:55:47.877Z,1009.54
2017-01-10T06:56:58.591Z,1009.56
2017-01-10T06:58:08.511Z,1009.5
2017-01-10T06:59:19.138Z,1009.52
2017-01-10T07:00:28.677Z,1009.51
2017-01-10T07:01:39.446Z,1009.47
2017-01-10T07:02:49.859Z,1009.46
2017-01-10T07:04:00.579Z,1009.51
2017-01-10T07:05:10.902Z,1009.47
2017-01-10T07:06:21.215Z,1009.46
2017-01-10T07:07:31.539Z,1009.5
2017-01-10T07:08:42.358Z,1009.48
2017-01-10T07:09:52.745Z,1009.45
2017-01-10T07:11:03.369Z,1009.48
2017-01-10T07:12:14.092Z,1009.44
2017-01-10T07:13:25.037Z,1009.48
2017-01-10T07:14:35.769Z,1009.47
2017-01-10T07:15:46.500Z,1009.51
2017-01-10T07:16:57.555Z,1009.46
2017-01-10T07:18:07.882Z,1009.52
2017-01-10T07:19:18.617Z,1009.51
2017-01-10T07:20:28.937Z,1009.51
2017-01-10T07:21:39.270Z,1009.53
2017-01-10T07:22:50.306Z,1009.54
2017-01-10T07:24:01.031Z,1009.49
2017-01-10T07:25:11.782Z,1009.51
2017-01-10T07:26:22.146Z,1009.51
2017-01-10T07:27:32.879Z,1009.48
2017-01-10T07:28:43.895Z,1009.48
2017-01-10T07:29:54.616Z,1009.48
2017-01-10T07:31:05.398Z,1009.5
2017-01-10T07:32:16.153Z,1009.52
2017-01-10T07:33:26.479Z,1009.49
2017-01-10T07:34:36.809Z,1009.51
2017-01-10T07:35:47.549Z,1009.48
2017-01-10T07:36:57.487Z,1009.46
2017-01-10T07:38:08.224Z,1009.51
2017-01-10T07:39:18.581Z,1009.52
2017-01-10T07:40:29.342Z,1009.51
2017-01-10T07:41:40.067Z,1009.57
2017-01-10T07:42:50.781Z,1009.59
2017-01-10T07:44:01.533Z,1009.6
2017-01-10T07:45:12.259Z,1009.64
2017-01-10T07:46:22.486Z,1009.6
2017-01-10T07:47:33.206Z,1009.64
2017-01-10T07:48:43.928Z,1009.61
2017-01-10T07:49:54.659Z,1009.64
2017-01-10T07:51:04.992Z,1009.62
2017-01-10T07:52:15.707Z,1009.6
2017-01-10T07:53:26.416Z,1009.59
2017-01-10T07:54:36.752Z,1009.57
2017-01-10T07:55:47.479Z,1009.55
2017-01-10T07:56:57.817Z,1009.55
2017-01-10T07:58:08.147Z,1009.55
2017-01-10T07:59:18.875Z,1009.57
2017-01-10T08:00:29.607Z,1009.58
2017-01-10T08:01:40.326Z,1009.53
2017-01-10T08:02:51.068Z,1009.53
2017-01-10T08:04:01.392Z,1009.57
2017-01-10T08:05:12.105Z,1009.53
2017-01-10T08:06:22.876Z,1009.58
2017-01-10T08:07:33.600Z,1009.6
2017-01-10T08:08:44.338Z,1009.59
2017-01-10T08:09:54.989Z,1009.58
2017-01-10T08:11:05.750Z,1009.61
2017-01-10T08:12:16.495Z,1009.58
2017-01-10T08:13:27.221Z,1009.56
2017-01-10T08:14:37.954Z,1009.56
2017-01-10T08:15:48.981Z,1009.56
2017-01-10T08:16:58.914Z,1009.56
2017-01-10T08:18:09.241Z,1009.62
2017-01-10T08:19:19.987Z,1009.62
2017-01-10T08:20:30.712Z,1009.68
2017-01-10T08:21:41.396Z,1009.65
2017-01-10T08:22:52.160Z,1009.65
2017-01-10T08:24:02.088Z,1009.7
2017-01-10T08:25:12.417Z,1009.69
2017-01-10T08:26:23.146Z,1009.68
2017-01-10T08:27:33.860Z,1009.66
2017-01-10T08:28:44.183Z,1009.71
2017-01-10T08:29:54.928Z,1009.69
2017-01-10T08:31:05.658Z,1009.69
2017-01-10T08:32:16.004Z,1009.67
2017-01-10T08:33:25.921Z,1009.69
2017-01-10T08:34:36.636Z,1009.7
2017-01-10T08:35:46.979Z,1009.69
2017-01-10T08:36:57.330Z,1009.74
2017-01-10T08:38:07.666Z,1009.77
2017-01-10T08:39:18.281Z,1009.73
2017-01-10T08:40:29.027Z,1009.74
2017-01-10T08:41:39.805Z,1009.75
2017-01-10T08:42:50.613Z,1009.78
2017-01-10T08:44:01.056Z,1009.74
2017-01-10T08:45:11.532Z,1009.75
2017-01-10T08:46:22.361Z,1009.74
2017-01-10T08:47:32.726Z,1009.8
2017-01-10T08:48:43.440Z,1009.75
2017-01-10T08:49:54.213Z,1009.71
2017-01-10T08:51:05.135Z,1009.74
2017-01-10T08:52:15.503Z,1009.76
2017-01-10T08:53:25.820Z,1009.81
2017-01-10T08:54:36.556Z,1009.8
2017-01-10T08:55:47.317Z,1009.78
2017-01-10T08:56:57.762Z,1009.84
2017-01-10T08:58:08.494Z,1009.8
2017-01-10T08:59:19.253Z,1009.82
2017-01-10T09:00:30.002Z,1009.85
2017-01-10T09:01:40.345Z,1009.83
2017-01-10T09:02:50.290Z,1009.85
2017-01-10T09:04:00.206Z,1009.82
2017-01-10T09:05:10.567Z,1009.83
2017-01-10T09:06:21.279Z,1009.8
2017-01-10T09:07:31.205Z,1009.8
2017-01-10T09:08:41.154Z,1009.81
2017-01-10T09:09:51.899Z,1009.81
2017-01-10T09:11:01.855Z,1009.79
2017-01-10T09:12:12.577Z,1009.77
2017-01-10T09:13:23.342Z,1009.82
2017-01-10T09:14:33.669Z,1009.77
2017-01-10T09:15:44.451Z,1009.82
2017-01-10T09:16:54.799Z,1009.77
2017-01-10T09:18:04.722Z,1009.76
2017-01-10T09:19:15.440Z,1009.8
2017-01-10T09:20:25.757Z,1009.8
2017-01-10T09:21:36.120Z,1009.81
2017-01-10T09:22:46.835Z,1009.77
2017-01-10T09:23:57.173Z,1009.8
2017-01-10T09:25:07.945Z,1009.85
2017-01-10T09:26:18.681Z,1009.76
2017-01-10T09:27:28.603Z,1009.82
2017-01-10T09:28:39.328Z,1009.79
2017-01-10T09:29:49.682Z,1009.82
2017-01-10T09:30:59.644Z,1009.81
2017-01-10T09:32:10.415Z,1009.83
2017-01-10T09:33:21.141Z,1009.86
2017-01-10T09:34:31.468Z,1009.86
2017-01-10T09:35:41.805Z,1009.81
2017-01-10T09:36:52.528Z,1009.83
2017-01-10T09:38:03.261Z,1009.8
2017-01-10T09:39:13.584Z,1009.81
2017-01-10T09:40:23.936Z,1009.75
2017-01-10T09:41:34.266Z,1009.77
2017-01-10T09:42:43.788Z,1009.79
2017-01-10T09:43:54.137Z,1009.73
2017-01-10T09:45:04.863Z,1009.73
2017-01-10T09:46:14.785Z,1009.74
2017-01-10T09:47:24.746Z,1009.7
2017-01-10T09:48:35.472Z,1009.7
2017-01-10T09:49:46.202Z,1009.69
2017-01-10T09:50:56.944Z,1009.74
2017-01-10T09:52:07.676Z,1009.73
2017-01-10T09:53:18.419Z,1009.71
2017-01-10T09:54:28.744Z,1009.71
2017-01-10T09:55:39.484Z,1009.69
2017-01-10T09:56:50.237Z,1009.71
2017-01-10T09:58:00.594Z,1009.68
2017-01-10T09:59:11.362Z,1009.67
2017-01-10T10:00:22.210Z,1009.62
2017-01-10T10:01:32.551Z,1009.64
2017-01-10T10:02:43.279Z,1009.66
2017-01-10T10:03:54.017Z,1009.67
2017-01-10T10:05:04.368Z,1009.62
2017-01-10T10:06:15.115Z,1009.67
2017-01-10T10:07:25.458Z,1009.62
2017-01-10T10:08:36.187Z,1009.64
2017-01-10T10:09:46.919Z,1009.65
2017-01-10T10:10:57.654Z,1009.63
2017-01-10T10:12:08.376Z,1009.64
2017-01-10T10:13:18.730Z,1009.65
2017-01-10T10:14:29.473Z,1009.67
2017-01-10T10:15:39.794Z,1009.71
2017-01-10T10:16:50.524Z,1009.7
2017-01-10T10:18:01.267Z,1009.73
2017-01-10T10:19:12.002Z,1009.67
2017-01-10T10:20:22.334Z,1009.68
2017-01-10T10:21:33.614Z,1009.62
2017-01-10T10:22:43.951Z,1009.62
2017-01-10T10:23:53.873Z,1009.64
2017-01-10T10:25:04.655Z,1009.63
2017-01-10T10:26:14.597Z,1009.71
2017-01-10T10:27:25.317Z,1009.74
2017-01-10T10:28:36.029Z,1009.74
2017-01-10T10:29:46.756Z,1009.71
2017-01-10T10:30:57.520Z,1009.73
2017-01-10T10:32:08.230Z,1009.72
2017-01-10T10:33:18.163Z,1009.72
2017-01-10T10:34:28.892Z,1009.77
2017-01-10T10:35:39.221Z,1009.8
2017-01-10T10:36:49.541Z,1009.68
2017-01-10T10:38:00.308Z,1009.71
2017-01-10T10:39:11.060Z,1009.68
2017-01-10T10:40:21.879Z,1009.76
2017-01-10T10:41:32.634Z,1009.73
2017-01-10T10:42:43.367Z,1009.78
2017-01-10T10:43:54.115Z,1009.79
2017-01-10T10:45:04.435Z,1009.75
2017-01-10T10:46:15.000Z,1009.72
2017-01-10T10:47:25.723Z,1009.71
2017-01-10T10:48:36.045Z,1009.67
2017-01-10T10:49:46.795Z,1009.7
2017-01-10T10:50:57.517Z,1009.63
2017-01-10T10:52:08.244Z,1009.63
2017-01-10T10:53:18.963Z,1009.61
2017-01-10T10:54:29.696Z,1009.59
2017-01-10T10:55:40.481Z,1009.61
2017-01-10T10:56:50.803Z,1009.67
2017-01-10T10:58:00.766Z,1009.61
2017-01-10T10:59:11.094Z,1009.6
2017-01-10T11:00:21.410Z,1009.61
2017-01-10T11:01:31.725Z,1009.67
2017-01-10T11:02:42.443Z,1009.61
2017-01-10T11:03:53.164Z,1009.6
2017-01-10T11:05:03.485Z,1009.57
2017-01-10T11:06:13.817Z,1009.57
2017-01-10T11:07:24.567Z,1009.57
2017-01-10T11:08:34.924Z,1009.58
2017-01-10T11:09:45.644Z,1009.6
2017-01-10T11:10:55.961Z,1009.61
2017-01-10T11:12:06.296Z,1009.57
2017-01-10T11:13:16.623Z,1009.56
2017-01-10T11:14:26.964Z,1009.55
2017-01-10T11:15:37.317Z,1009.52
2017-01-10T11:16:47.666Z,1009.47
2017-01-10T11:17:58.388Z,1009.44
2017-01-10T11:19:08.320Z,1009.47
2017-01-10T11:20:19.098Z,1009.44
2017-01-10T11:21:29.840Z,1009.47
2017-01-10T11:22:39.789Z,1009.38
2017-01-10T11:23:50.125Z,1009.39
2017-01-10T11:25:00.855Z,1009.3
2017-01-10T11:26:11.600Z,1009.3
2017-01-10T11:27:21.925Z,1009.22
2017-01-10T11:28:32.695Z,1009.21
2017-01-10T11:29:42.619Z,1009.2
2017-01-10T11:30:52.986Z,1009.2
2017-01-10T11:32:03.721Z,1009.18
2017-01-10T11:33:14.047Z,1009.15
2017-01-10T11:34:24.386Z,1009.12
2017-01-10T11:35:35.149Z,1009.15
2017-01-10T11:36:45.481Z,1009.09
2017-01-10T11:37:55.869Z,1009.09
2017-01-10T11:39:06.608Z,1009.08
2017-01-10T11:40:17.334Z,1009.07
2017-01-10T11:41:27.666Z,1009.05
2017-01-10T11:42:38.011Z,1009.03
2017-01-10T11:43:48.746Z,1009.05
2017-01-10T11:44:59.481Z,1009.07
2017-01-10T11:46:09.836Z,1009.02
2017-01-10T11:47:20.581Z,1009.04
2017-01-10T11:48:31.327Z,1009.05
2017-01-10T11:49:41.650Z,1009.08
2017-01-10T11:50:51.986Z,1009.07
2017-01-10T11:52:02.787Z,1009.06
2017-01-10T11:53:13.519Z,1009.08
2017-01-10T11:54:23.900Z,1009.05
2017-01-10T11:55:34.683Z,1009.06
2017-01-10T11:56:45.027Z,1009.07
2017-01-10T11:57:55.772Z,1009.16
2017-01-10T11:59:06.131Z,1009.17
2017-01-10T12:00:17.061Z,1009.12
2017-01-10T12:01:27.797Z,1009.1
2017-01-10T12:02:38.512Z,1009.17
2017-01-10T12:03:49.247Z,1009.23
2017-01-10T12:04:59.190Z,1009.17
2017-01-10T12:06:09.522Z,1009.22
2017-01-10T12:07:20.236Z,1009.19
2017-01-10T12:08:30.972Z,1009.21
2017-01-10T12:09:41.316Z,1009.26
2017-01-10T12:10:51.666Z,1009.26
2017-01-10T12:12:02.002Z,1009.24
2017-01-10T12:13:12.751Z,1009.24
2017-01-10T12:14:23.090Z,1009.24
2017-01-10T12:15:33.452Z,1009.25
2017-01-10T12:16:43.794Z,1009.19
2017-01-10T12:17:54.491Z,1009.16
2017-01-10T12:19:05.215Z,1009.16
2017-01-10T12:20:15.139Z,1009.13
2017-01-10T12:21:25.476Z,1009.19
2017-01-10T12:22:36.185Z,1009.07
2017-01-10T12:23:46.541Z,1009.16
2017-01-10T12:24:56.876Z,1009.16
2017-01-10T12:26:07.197Z,1009.04
2017-01-10T12:27:17.923Z,1009.04
2017-01-10T12:28:28.273Z,1009.04
2017-01-10T12:29:38.995Z,1009.02
2017-01-10T12:30:49.325Z,1008.99
2017-01-10T12:32:00.028Z,1009
2017-01-10T12:33:10.352Z,1009.01
2017-01-10T12:34:19.874Z,1009
2017-01-10T12:35:30.185Z,1008.96
2017-01-10T12:36:40.888Z,1009
2017-01-10T12:37:51.602Z,1009.03
2017-01-10T12:39:02.300Z,1008.99
2017-01-10T12:40:13.040Z,1009
2017-01-10T12:41:23.349Z,1009.03
2017-01-10T12:42:33.691Z,1009.02
2017-01-10T12:43:44.406Z,1009.05
2017-01-10T12:44:54.317Z,1009.05
2017-01-10T12:46:04.646Z,1009
2017-01-10T12:47:15.355Z,1009.03
2017-01-10T12:48:26.073Z,1009.01
2017-01-10T12:49:36.787Z,1009
2017-01-10T12:50:47.103Z,1009
2017-01-10T12:51:57.415Z,1008.99
2017-01-10T12:53:07.329Z,1009
2017-01-10T12:54:17.649Z,1008.99
2017-01-10T12:55:27.577Z,1009.02
2017-01-10T12:56:38.283Z,1009
2017-01-10T12:57:48.622Z,1009
2017-01-10T12:58:59.363Z,1009.05
2017-01-10T13:00:09.285Z,1009.02
2017-01-10T13:01:19.597Z,1009
2017-01-10T13:02:29.899Z,1009.03
2017-01-10T13:03:40.282Z,1008.94
2017-01-10T13:04:50.604Z,1008.91
2017-01-10T13:06:00.916Z,1008.87
2017-01-10T13:07:11.221Z,1008.87
2017-01-10T13:08:21.548Z,1008.88
2017-01-10T13:09:32.255Z,1008.87
2017-01-10T13:10:42.962Z,1008.89
2017-01-10T13:11:53.275Z,1008.9
2017-01-10T13:13:03.602Z,1008.91
2017-01-10T13:14:14.155Z,1008.93
2017-01-10T13:15:24.478Z,1008.93
2017-01-10T13:16:35.026Z,1008.97
2017-01-10T13:17:45.727Z,1008.93
2017-01-10T13:18:56.046Z,1008.91
2017-01-10T13:20:06.764Z,1008.97
2017-01-10T13:21:17.068Z,1008.92
2017-01-10T13:22:27.365Z,1008.92
2017-01-10T13:23:37.299Z,1008.95
2017-01-10T13:24:47.595Z,1008.92
2017-01-10T13:25:58.335Z,1008.9
2017-01-10T13:27:09.063Z,1008.95
2017-01-10T13:28:19.384Z,1008.92
2017-01-10T13:29:30.096Z,1008.93
2017-01-10T13:30:40.425Z,1008.93
2017-01-10T13:31:50.735Z,1008.92
2017-01-10T13:33:01.037Z,1008.92
2017-01-10T13:34:11.787Z,1008.93
2017-01-10T13:35:21.724Z,1008.89
2017-01-10T13:36:32.426Z,1008.91
2017-01-10T13:37:43.131Z,1008.87
2017-01-10T13:38:53.053Z,1008.89
2017-01-10T13:40:03.789Z,1008.85
2017-01-10T13:41:14.109Z,1008.87
2017-01-10T13:42:24.814Z,1008.86
2017-01-10T13:43:35.521Z,1008.88
2017-01-10T13:44:46.239Z,1008.9
2017-01-10T13:45:56.553Z,1008.91
2017-01-10T13:47:06.874Z,1008.91
2017-01-10T13:48:17.198Z,1008.94
2017-01-10T13:49:27.895Z,1008.94
2017-01-10T13:50:38.601Z,1008.91
2017-01-10T13:51:49.311Z,1008.97
2017-01-10T13:53:00.018Z,1008.89
2017-01-10T13:54:10.323Z,1008.84
2017-01-10T13:55:20.639Z,1008.86
2017-01-10T13:56:30.564Z,1008.86
2017-01-10T13:57:40.873Z,1008.88
2017-01-10T13:58:51.588Z,1008.9
2017-01-10T14:00:02.306Z,1008.9
2017-01-10T14:01:12.649Z,1008.92
2017-01-10T14:02:22.989Z,1008.95
2017-01-10T14:03:33.312Z,1008.9
2017-01-10T14:04:43.228Z,1008.89
2017-01-10T14:05:53.549Z,1008.9
2017-01-10T14:07:04.269Z,1008.91
2017-01-10T14:08:15.026Z,1008.87
2017-01-10T14:09:25.760Z,1008.86
2017-01-10T14:10:35.712Z,1008.79
2017-01-10T14:11:46.455Z,1008.8
2017-01-10T14:12:57.214Z,1008.83
2017-01-10T14:14:07.172Z,1008.82
2017-01-10T14:15:17.891Z,1008.84
2017-01-10T14:16:28.640Z,1008.86